Latest Coastal Weather Observations for Christmas Island

IDW60701

Issued at 10:22 pm WST Sunday 21 December 2014 (issued every 10 minutes, with the page automatically refreshed every 10 minutes)

About coastal observations | Map of coastal stations | Coastal observations for WA | Marine services | Other Formats
Station Details ID: 200790 Name: CHRISTMAS ISLAND AERO Lat: -10.45 Lon: 105.69 Height: 261.0 m
Data from the previous 72 hours. | See also: Recent months at Christmas Island
Date/Time
WST
Temp

°C
Wind Pressure Rain
since 9am
mm
Weather Cloud Vis
km
Sea
Height
m
Swell
Dir
 
Speed
knots
Gust
knots
hPa Trend Height
m
Period
s
Dir
21/10:14pm 24.3 SE 4 7 1010.7 - 14.8 - Partly cloudy 4 - - - -
21/10:09pm 24.3 SE 3 5 1010.6 - 14.8 - Partly cloudy 10 - - - -
21/10:00pm 24.0 CALM 0 3 1008.9 - 14.8 - Cloudy 10 - - - -
21/09:57pm 23.9 CALM 0 3 1010.5 - 14.8 - Partly cloudy 10 - - - -
21/09:36pm 23.9 SE 3 4 1010.3 - 14.4 - Partly cloudy 6 - - - -
21/09:21pm 23.8 SE 3 5 1010.2 - 13.6 - Partly cloudy 10 - - - -
21/09:02pm 23.8 SE 3 5 1010.1 - 13.4 - Partly cloudy 10 - - - -
21/09:00pm 23.7 SE 3 5 1010.0 - 13.4 - Partly cloudy 10 - - - -
21/08:16pm 23.6 SE 4 7 1009.8 - 13.4 - Partly cloudy 10 - - - -
21/08:00pm 24.1 SE 4 7 1009.9 - 13.4 - Partly cloudy 8 - - - -
21/07:58pm 24.1 ESE 4 7 1009.8 - 13.4 - Partly cloudy 7 - - - -
21/07:52pm 24.1 E 3 6 1009.8 - 13.4 - Partly cloudy 10 - - - -
21/07:25pm 24.1 CALM 0 0 1009.4 - 13.0 - Partly cloudy 4 - - - -
21/07:00pm 24.3 E 3 5 1007.3 - 11.4 - Cloudy 4 - - - -
21/06:47pm 24.3 ENE 7 12 1008.8 - 10.0 - Partly cloudy 6 - - - -
21/06:14pm 25.0 S 4 7 1008.4 - 9.2 - Partly cloudy 10 - - - -
21/06:00pm 24.7 SE 4 7 1008.3 - 9.2 - Partly cloudy 5 - - - -
21/05:29pm 24.6 ENE 9 11 1008.1 - 2.6 - Partly cloudy 5 - - - -
21/05:00pm 25.6 SE 5 8 1007.9 - 0.0 - Partly cloudy 10 - - - -
21/04:41pm 25.6 SSE 6 10 1008.2 - 0.0 - Partly cloudy 10 - - - -
21/04:31pm 26.1 SE 5 10 1008.3 - 0.0 - Partly cloudy 10 - - - -
21/04:00pm 26.1 SE 7 10 1006.8 - 0.0 - Cloudy 10 - - - -
21/03:00pm 26.4 SE 8 10 1009.0 - 0.0 - Partly cloudy 10 - - - -
21/02:00pm 27.0 SE 8 12 1009.7 - 0.0 - Partly cloudy 10 - - - -
21/01:20pm 27.4 SE 7 11 1010.2 - 0.0 - Partly cloudy 10 - - - -
21/01:03pm 27.9 SE 7 10 1010.4 - 0.0 - Partly cloudy 10 - - - -
21/01:00pm 27.8 SE 8 11 1008.8 - 0.0 - Cloudy 10 - - - -
21/12:09pm 26.9 SSE 6 9 1010.7 - 0.0 - Partly cloudy 10 - - - -
21/12:06pm 27.4 SSE 6 9 1010.7 - 0.0 - Partly cloudy 10 - - - -
21/12:00pm 27.0 SE 6 9 1010.8 - 0.0 - Partly cloudy 10 - - - -
21/11:00am 26.8 SSE 7 11 1011.2 - 0.0 - Partly cloudy 10 - - - -
21/10:37am 27.4 SSE 7 12 1011.1 - 0.0 - Partly cloudy 10 - - - -
21/10:30am 27.2 SE 8 12 1011.1 - 0.0 - Partly cloudy 10 - - - -
21/10:00am 26.3 S 7 10 1009.4 - 1.6 - Cloudy 10 - - - -
21/09:00am 25.9 SSE 7 12 1010.5 - 1.6 - Partly cloudy 10 - - - -
21/08:00am 25.0 SE 7 11 1010.3 - 1.6 - Partly cloudy 10 - - - -
21/07:00am 24.6 SE 6 9 1008.0 - 1.6 - Cloudy 10 - - - -
21/06:00am 24.4 SSE 6 11 1008.8 - 1.6 - Partly cloudy 10 - - - -
21/05:00am 24.7 SE 8 11 1008.9 - 1.6 - Partly cloudy 10 - - - -
21/04:00am 24.7 SE 9 12 1007.6 - 1.6 - Cloudy 10 - - - -
21/03:00am 24.7 SE 8 11 1010.0 - 1.6 - Partly cloudy 10 - - - -
21/02:00am 24.8 SE 9 12 1010.7 - 1.6 - Partly cloudy 10 - - - -
21/01:20am 24.8 SE 8 11 1011.2 - 1.6 - Partly cloudy 10 - - - -
21/01:00am 24.7 SE 9 13 1009.8 - 1.6 - Cloudy 10 - - - -
21/12:00am 24.9 SE 11 15 1012.1 - 1.6 - Partly cloudy 10 - - - -
 
Date/Time
WST
Temp

°C
Wind Pressure Rain
since 9am
mm
Weather Cloud Vis
km
Sea
Height
m
Swell
Dir
 
Speed
knots
Gust
knots
hPa Trend Height
m
Period
s
Dir
20/11:13pm 24.2 SSE 6 10 1012.4 - 1.6 - Partly cloudy 10 - - - -
20/11:00pm 24.1 SSE 5 8 1012.3 - 1.6 - Partly cloudy 10 - - - -
20/10:00pm 25.0 SE 10 16 1010.3 - 1.6 - Cloudy 10 - - - -
20/09:00pm 25.0 SE 11 16 1011.4 - 1.6 - Partly cloudy 10 - - - -
20/08:50pm 24.9 SE 11 14 1011.3 - 1.6 - Partly cloudy 10 - - - -
20/08:40pm 25.0 SE 12 17 1011.2 - 1.6 - Partly cloudy 10 - - - -
20/08:29pm 25.0 SE 12 17 1011.2 - 1.6 - Partly cloudy 10 - - - -
20/08:17pm 24.9 SE 11 15 1011.0 - 1.6 - Partly cloudy 10 - - - -
20/08:00pm 24.7 SE 11 16 1010.9 - 1.6 - Partly cloudy 10 - - - -
20/07:49pm 24.3 SE 11 14 1010.7 - 1.6 - Partly cloudy 10 - - - -
20/07:00pm 24.5 SE 10 15 1008.5 - 1.6 - Cloudy 10 - - - -
20/06:00pm 24.7 SE 9 13 1009.4 - 1.6 - Partly cloudy 10 - - - -
20/05:00pm 25.0 SE 9 13 1009.3 - 1.6 - Cloudy 10 - - - -
20/04:00pm 25.2 SE 8 11 1008.5 - 1.6 - Cloudy 10 - - - -
20/03:07pm 25.0 SE 8 11 1010.6 - 1.6 - Partly cloudy 10 - - - -
20/03:00pm 24.8 SE 8 13 1010.7 - 1.6 - Partly cloudy 10 - - - -
20/02:17pm 25.1 SE 8 11 1010.9 - 1.6 - Partly cloudy 10 - - - -
20/02:00pm 24.6 SE 7 11 1011.3 - 1.6 - Partly cloudy 10 - - - -
20/01:10pm 24.3 SSE 6 9 1011.9 - 1.6 - Partly cloudy 10 - - - -
20/01:00pm 24.2 SSE 7 12 1010.3 - 1.6 - Cloudy 6 - - - -
20/12:54pm 24.3 SSE 7 11 1011.9 - 1.6 - Partly cloudy 6 - - - -
20/12:06pm 24.7 S 6 10 1012.2 - 1.4 - Partly cloudy 10 - - - -
20/12:00pm 25.0 S 5 8 1012.2 - 1.4 - Partly cloudy 10 - - - -
20/11:00am 24.7 W 3 4 1012.7 - 1.4 - Partly cloudy 10 - - - -
20/10:57am 24.8 W 3 4 1012.7 - 1.4 - Partly cloudy 10 - - - -
20/10:38am 23.9 WNW 4 6 1013.0 - 1.4 - Partly cloudy 10 - - - -
20/10:00am 23.8 NNE 3 6 1011.7 - 33.4 - Cloudy 7 - - - -
20/09:41am 23.8 NNE 8 11 1013.3 - 32.8 - Cloudy 0.3 - - - -
20/09:39am 23.9 NNE 7 11 1013.3 - 32.6 - Cloudy 0.2 - - - -
20/09:00am 24.2 ESE 7 10 1013.0 - 26.0 - Partly cloudy 0.6 - - - -
20/08:15am 23.9 ESE 1 3 1012.7 - 23.8 - Partly cloudy 6 - - - -
20/08:07am 23.9 ESE 2 4 1012.7 - 23.8 - Partly cloudy 10 - - - -
20/08:00am 23.8 ESE 4 7 1012.7 - 23.8 - Partly cloudy 10 - - - -
20/07:49am 23.8 SE 7 9 1012.5 - 23.8 - Partly cloudy 0.3 - - - -
20/07:42am 23.8 ESE 6 8 1012.4 - 23.8 - Partly cloudy 0.3 - - - -
20/07:41am 23.8 ESE 6 8 1012.4 - 23.8 - Partly cloudy 0.3 - - - -
20/07:00am 23.8 ESE 6 9 1010.2 - 23.8 - Cloudy 0.3 - - - -
20/06:26am 23.9 E 8 11 1011.4 - 23.8 - Cloudy 0.2 - - - -
20/06:23am 24.1 ESE 8 12 1011.3 - 23.8 - Cloudy 0.2 - - - -
20/06:19am 24.0 ESE 8 12 1011.3 - 23.8 - Cloudy 0.1 - - - -
20/06:15am 24.1 ESE 8 11 1011.3 - 23.6 - Cloudy 0.1 - - - -
20/06:13am 24.1 ESE 8 11 1011.2 - 23.6 - Cloudy 0.1 - - - -
20/06:11am 24.0 SE 7 11 1011.2 - 23.6 - Cloudy 0.1 - - - -
20/06:02am 23.9 SE 6 8 1010.9 - 23.6 - Cloudy 0.2 - - - -
20/06:00am 23.9 SE 6 8 1010.9 - 23.6 - Partly cloudy 0.2 - - - -
20/05:58am 23.9 SE 6 8 1011.0 - 23.6 - Partly cloudy 0.3 - - - -
20/05:55am 23.9 SE 7 11 1011.0 - 23.6 - Partly cloudy 0.3 - - - -
20/05:46am 23.9 ESE 8 11 1011.0 - 23.6 - Cloudy 0.2 - - - -
20/05:38am 23.8 ESE 9 13 1011.0 - 23.6 - Partly cloudy 0.2 - - - -
20/05:35am 24.0 ESE 9 13 1011.1 - 23.6 - Cloudy 0.2 - - - -
20/05:34am 24.0 ESE 9 13 1011.1 - 23.6 - Cloudy 0.2 - - - -
20/05:29am 24.1 ESE 9 13 1011.0 - 23.2 - Cloudy 0.1 - - - -
20/05:26am 24.2 ESE 8 13 1011.0 - 23.2 - Cloudy 0.1 - - - -
20/05:00am 23.9 E 7 12 1011.2 - 23.0 - Partly cloudy 0.3 - - - -
20/04:58am 23.9 E 7 12 1011.1 - 23.0 - Partly cloudy 0.2 - - - -
20/04:07am 23.9 ESE 7 9 1011.3 - 18.6 - Partly cloudy 0.5 - - - -
20/04:00am 23.9 ESE 7 10 1009.8 - 18.6 - Cloudy 0.6 - - - -
20/03:55am 23.9 SE 7 11 1011.5 - 18.6 - Partly cloudy 1 - - - -
20/03:07am 24.4 ESE 6 11 1011.5 - 7.4 - Partly cloudy 3 - - - -
20/03:00am 24.3 ESE 7 11 1011.6 - 7.4 - Cloudy 10 - - - -
20/02:01am 24.2 SSE 6 11 1011.8 - 7.2 - Partly cloudy 10 - - - -
20/02:00am 24.2 SSE 6 11 1011.9 - 7.2 - Partly cloudy 10 - - - -
20/01:54am 24.1 SSE 6 10 1011.9 - 7.2 - Partly cloudy 10 - - - -
20/01:30am 24.3 SE 10 14 1012.3 - 7.2 - Partly cloudy 0.9 - - - -
20/01:23am 24.2 SE 10 16 1012.4 - 7.2 - Partly cloudy 1 - - - -
20/01:22am 24.2 SE 11 16 1012.4 - 7.2 - Partly cloudy 0.9 - - - -
20/01:15am 24.4 SE 10 13 1012.5 - 7.0 - Cloudy 0.5 - - - -
20/01:09am 24.3 SSE 6 9 1012.5 - 6.8 - Cloudy 0.5 - - - -
20/01:03am 24.2 SSE 7 12 1012.6 - 6.0 - Cloudy 0.3 - - - -
20/01:00am 24.2 SE 8 14 1011.0 - 5.8 - Cloudy 0.3 - - - -
20/12:50am 24.0 SE 11 15 1012.9 - 5.4 - Cloudy 0.3 - - - -
20/12:49am 24.0 SE 11 15 1012.9 - 5.4 - Cloudy 0.3 - - - -
20/12:44am 24.1 SE 11 15 1013.0 - 5.2 - Cloudy 0.2 - - - -
20/12:43am 24.1 ESE 11 15 1013.0 - 5.2 - Cloudy 0.2 - - - -
20/12:35am 24.3 ESE 10 18 1013.0 - 4.8 - Cloudy 0.2 - - - -
20/12:33am 24.2 ESE 11 18 1013.0 - 4.8 - Cloudy 0.3 - - - -
20/12:27am 24.4 SE 11 15 1013.0 - 4.6 - Cloudy 0.3 - - - -
20/12:00am 24.8 SE 9 14 1013.4 - 2.0 - Cloudy 3 - - - -
 
Date/Time
WST
Temp

°C
Wind Pressure Rain
since 9am
mm
Weather Cloud Vis
km
Sea
Height
m
Swell
Dir
 
Speed
knots
Gust
knots
hPa Trend Height
m
Period
s
Dir
19/11:55pm 25.0 SE 9 15 1013.3 - 0.6 - Partly cloudy 6 - - - -
19/11:01pm 24.6 SE 9 13 1013.8 - 0.6 - Partly cloudy 10 - - - -
19/11:00pm 24.6 SE 9 14 1013.8 - 0.6 - Partly cloudy 10 - - - -
19/10:43pm 24.8 SE 8 13 1013.8 - 0.6 - Cloudy 0.9 - - - -
19/10:42pm 24.8 SE 8 13 1013.8 - 0.6 - Cloudy 0.9 - - - -
19/10:34pm 24.8 SE 7 11 1013.7 - 0.6 - Cloudy 6 - - - -
19/10:32pm 24.7 SE 8 13 1013.8 - 0.6 - Cloudy 10 - - - -
19/10:09pm 24.9 ESE 8 12 1013.8 - 0.4 - Partly cloudy 6 - - - -
19/10:00pm 24.7 SE 7 11 1012.1 - 0.4 - Cloudy 10 - - - -
19/09:43pm 24.6 SE 6 9 1013.7 - 0.4 - Partly cloudy 6 - - - -
19/09:00pm 24.5 SE 6 9 1013.1 - 0.4 - Partly cloudy 10 - - - -
19/08:35pm 24.4 SE 6 8 1012.9 - 0.4 - Partly cloudy 10 - - - -
19/08:20pm 24.3 SE 6 8 1012.8 - 0.4 - Partly cloudy 1 - - - -
19/08:00pm 24.3 SE 5 8 1012.7 - 0.4 - Cloudy 0.3 - - - -
19/07:52pm 24.2 SE 5 8 1012.6 - 0.4 - Cloudy 0.3 - - - -
19/07:50pm 24.3 SE 6 8 1012.6 - 0.4 - Cloudy 0.2 - - - -
19/07:17pm 24.5 SSE 4 6 1012.3 - 0.2 - Cloudy 0.6 - - - -
19/07:08pm 24.5 S 4 5 1012.3 - 0.2 - Cloudy 0.8 - - - -
19/07:00pm 24.5 SSE 3 6 1010.5 - 0.2 - Cloudy 0.4 - - - -
19/06:22pm 24.8 SSE 6 8 1011.7 - 0.2 - Partly cloudy 1 - - - -
19/06:19pm 24.7 SSE 6 8 1011.7 - 0.2 - Partly cloudy 6 - - - -
19/06:00pm 25.0 SE 5 8 1011.2 - 0.2 - Partly cloudy 10 - - - -
19/05:00pm 25.1 ESE 5 7 1011.0 - 0.2 - Partly cloudy 10 - - - -
19/04:47pm 25.2 ESE 6 9 1011.1 - 0.2 - Partly cloudy 10 - - - -
19/04:18pm 25.9 ESE 7 10 1011.2 - 0.2 - Partly cloudy 6 - - - -
19/04:00pm 26.1 ESE 7 9 1009.7 - 0.2 - Cloudy 10 - - - -
19/03:29pm 25.9 E 8 10 1011.7 - 0.2 - Partly cloudy 10 - - - -
19/03:09pm 25.9 ESE 7 10 1011.7 - 0.2 - Partly cloudy 5 - - - -
19/03:00pm 26.2 ESE 7 12 1011.9 - 0.2 - Partly cloudy 10 - - - -
19/02:00pm 26.8 ESE 7 9 1012.4 - 0.2 - Partly cloudy 10 - - - -
19/01:00pm 26.3 ESE 8 10 1011.7 - 0.2 - Cloudy 10 - - - -
19/12:00pm 26.0 ESE 9 14 1013.6 - 0.2 - Partly cloudy 10 - - - -
19/11:00am 25.6 ESE 11 14 1013.7 - 0.0 - Partly cloudy 10 - - - -
19/10:00am 25.9 ESE 10 14 1012.2 - 14.2 - Cloudy 10 - - - -
19/09:00am 25.2 ESE 10 15 1013.4 - 14.2 - Partly cloudy 10 - - - -
19/08:46am 25.3 SE 9 14 1013.3 - 14.2 - Partly cloudy 10 - - - -
19/08:14am 25.0 SE 8 11 1013.2 - 14.2 - Partly cloudy 0.9 - - - -
19/08:05am 24.9 SE 8 12 1013.1 - 14.2 - Partly cloudy 0.9 - - - -
19/08:00am 24.7 SE 8 12 1013.0 - 14.2 - Partly cloudy 3 - - - -
19/07:53am 24.6 SE 8 12 1013.0 - 14.2 - Partly cloudy 1 - - - -
19/07:47am 24.7 SE 8 11 1012.9 - 14.2 - Partly cloudy 0.9 - - - -
19/07:37am 24.6 SE 9 13 1012.7 - 14.2 - Partly cloudy 6 - - - -
19/07:12am 24.4 SE 8 12 1012.4 - 14.2 - Partly cloudy 10 - - - -
19/07:06am 24.3 SE 8 12 1012.2 - 14.2 - Partly cloudy 10 - - - -
19/07:00am 24.3 SE 8 10 1010.5 - 14.2 - Cloudy 10 - - - -
19/06:19am 24.8 ESE 9 15 1011.5 - 14.2 - Partly cloudy 2 - - - -
19/06:10am 24.7 ESE 9 13 1011.4 - 14.2 - Partly cloudy 1 - - - -
19/06:00am 24.8 SE 10 13 1011.3 - 14.2 - Partly cloudy 0.6 - - - -
19/05:56am 24.8 SE 10 14 1011.3 - 14.2 - Partly cloudy 0.9 - - - -
19/05:53am 24.7 SE 9 14 1011.3 - 14.2 - Partly cloudy 1 - - - -
19/05:48am 24.8 SE 9 13 1011.3 - 14.2 - Partly cloudy 0.9 - - - -
19/05:41am 24.6 SE 9 13 1011.3 - 14.2 - Cloudy 1 - - - -
19/05:36am 24.7 ESE 10 14 1011.3 - 14.2 - Cloudy 0.5 - - - -
19/05:35am 24.7 ESE 10 14 1011.3 - 14.2 - Cloudy 0.5 - - - -
19/05:32am 24.7 ESE 10 14 1011.3 - 14.2 - Partly cloudy 0.6 - - - -
19/05:15am 24.9 SE 8 12 1011.1 - 13.8 - Partly cloudy 6 - - - -
19/05:00am 24.7 SE 9 12 1011.2 - 13.8 - Partly cloudy 10 - - - -
19/04:26am 24.8 SE 9 12 1011.0 - 13.8 - Partly cloudy 7 - - - -
19/04:24am 24.8 SE 9 12 1011.0 - 13.8 - Partly cloudy 7 - - - -
19/04:00am 24.8 SE 9 12 1009.4 - 13.8 - Cloudy 0.9 - - - -
19/03:57am 24.9 SE 9 12 1011.0 - 13.8 - Partly cloudy 0.9 - - - -
19/03:43am 24.8 SE 9 12 1011.0 - 13.8 - Partly cloudy 6 - - - -
19/03:09am 24.7 SE 9 14 1011.3 - 13.8 - Partly cloudy 10 - - - -
19/03:00am 24.7 SE 10 13 1011.4 - 13.8 - Partly cloudy 10 - - - -
19/02:40am 24.9 SE 9 13 1011.6 - 13.6 - Cloudy 2 - - - -
19/02:23am 24.8 SE 10 14 1011.7 - 13.6 - Partly cloudy 1 - - - -
19/02:16am 25.0 SE 10 14 1011.8 - 13.6 - Partly cloudy 0.9 - - - -
19/02:07am 24.8 SE 10 14 1011.8 - 13.6 - Partly cloudy 6 - - - -
19/02:00am 24.9 SE 9 13 1011.8 - 13.6 - Partly cloudy 10 - - - -
19/01:00am 25.1 SE 9 13 1010.7 - 13.6 - Cloudy 10 - - - -
19/12:00am 25.0 SE 9 13 1012.9 - 13.6 - Partly cloudy 10 - - - -

Other Formats:

Comma delimited format used in spreadsheet applications
http://www.bom.gov.au/fwo/IDW60701/IDW60701.96995.axf

JavaScript Object Notation format (JSON) in row-major order
http://www.bom.gov.au/fwo/IDW60701/IDW60701.96995.json